createdAt,value
2018-12-04T00:02:19.462Z,193.87
2018-12-04T00:04:46.983Z,189.93
2018-12-04T00:07:14.493Z,199.13
2018-12-04T00:09:42.015Z,196.40
2018-12-04T00:12:09.515Z,201.37
2018-12-04T00:14:37.013Z,194.63
2018-12-04T00:19:44.226Z,215.93
2018-12-04T00:22:11.746Z,206.00
2018-12-04T00:24:39.254Z,215.70
2018-12-04T00:27:07.325Z,213.90
2018-12-04T00:29:35.389Z,199.90
2018-12-04T00:32:02.885Z,207.93
2018-12-04T00:34:30.406Z,209.70
2018-12-04T00:36:57.934Z,210.97
2018-12-04T00:39:25.444Z,213.10
2018-12-04T00:41:52.941Z,207.70
2018-12-04T00:44:20.458Z,198.87
2018-12-04T00:46:47.962Z,176.37
2018-12-04T00:49:15.470Z,197.30
2018-12-04T00:51:42.969Z,219.10
2018-12-04T00:54:10.491Z,216.77
2018-12-04T00:56:37.997Z,220.00
2018-12-04T00:59:05.494Z,196.53
2018-12-04T01:01:33.566Z,197.33
2018-12-04T01:04:01.269Z,200.13
2018-12-04T01:06:28.794Z,195.17
2018-12-04T01:08:56.409Z,201.00
2018-12-04T01:11:24.010Z,199.27
2018-12-04T01:13:52.142Z,187.07
2018-12-04T01:16:19.665Z,170.20
2018-12-04T01:18:47.162Z,178.07
2018-12-04T01:21:14.673Z,182.67
2018-12-04T01:23:42.657Z,182.60
2018-12-04T01:26:10.165Z,164.50
2018-12-04T01:28:37.674Z,176.33
2018-12-04T01:31:05.180Z,173.77
2018-12-04T01:33:32.681Z,211.03
2018-12-04T01:36:00.198Z,248.13
2018-12-04T01:38:27.709Z,226.27
2018-12-04T01:40:55.209Z,214.47
2018-12-04T01:43:23.110Z,207.90
2018-12-04T01:45:50.877Z,199.93
2018-12-04T01:48:18.726Z,200.70
2018-12-04T01:50:46.210Z,196.77
2018-12-04T01:53:14.489Z,197.00
2018-12-04T01:55:41.993Z,194.07
2018-12-04T01:58:09.508Z,192.53
2018-12-04T02:00:37.024Z,192.67
2018-12-04T02:03:04.554Z,186.17
2018-12-04T02:05:32.074Z,184.47
2018-12-04T02:07:59.838Z,178.80
2018-12-04T02:10:27.353Z,171.23
2018-12-04T02:12:54.854Z,108.43
2018-12-04T02:15:22.550Z,100.83
2018-12-04T02:17:50.040Z,106.20
2018-12-04T02:20:18.352Z,103.13
2018-12-04T02:22:46.133Z,106.70
2018-12-04T02:25:14.005Z,102.20
2018-12-04T02:27:41.497Z,98.40
2018-12-04T02:30:09.781Z,86.37
2018-12-04T02:32:37.347Z,88.47
2018-12-04T02:35:05.525Z,85.60
2018-12-04T02:37:33.019Z,80.57
2018-12-04T02:40:00.540Z,71.97
2018-12-04T02:42:28.025Z,72.73
2018-12-04T02:44:55.520Z,64.37
2018-12-04T02:47:23.029Z,65.57
2018-12-04T02:49:50.918Z,65.73
2018-12-04T02:52:18.498Z,62.87
2018-12-04T02:54:46.024Z,56.47
2018-12-04T02:57:13.521Z,55.53
2018-12-04T02:59:41.018Z,55.27
2018-12-04T03:02:08.535Z,59.50
2018-12-04T03:04:36.016Z,53.00
2018-12-04T03:07:03.533Z,50.10
2018-12-04T03:09:31.035Z,49.73
2018-12-04T03:11:58.552Z,43.70
2018-12-04T03:14:26.144Z,46.70
2018-12-04T03:16:53.654Z,45.90
2018-12-04T03:19:21.520Z,42.90
2018-12-04T03:21:49.393Z,41.00
2018-12-04T03:24:16.889Z,38.60
2018-12-04T03:26:44.391Z,36.67
2018-12-04T03:29:11.903Z,37.00
2018-12-04T03:31:39.401Z,35.33
2018-12-04T03:34:07.008Z,35.27
2018-12-04T03:36:35.225Z,33.93
2018-12-04T03:39:02.751Z,32.67
2018-12-04T03:41:30.262Z,30.60
2018-12-04T03:43:57.785Z,29.97
2018-12-04T03:46:25.296Z,26.70
2018-12-04T03:48:53.158Z,30.73
2018-12-04T03:51:20.676Z,31.07
2018-12-04T03:53:48.257Z,26.30
2018-12-04T03:56:15.773Z,26.93
2018-12-04T03:58:43.267Z,23.07
2018-12-04T04:01:10.777Z,23.33
2018-12-04T04:03:38.273Z,24.77
2018-12-04T04:06:05.784Z,25.67
2018-12-04T04:08:33.299Z,20.87
2018-12-04T04:11:01.583Z,20.17
2018-12-04T04:13:29.081Z,20.53
2018-12-04T04:15:56.565Z,20.50
2018-12-04T04:18:24.083Z,18.23
2018-12-04T04:20:51.594Z,18.00
2018-12-04T04:23:19.095Z,17.00
2018-12-04T04:25:46.600Z,17.50
2018-12-04T04:28:14.091Z,16.50
2018-12-04T04:30:41.599Z,16.30
2018-12-04T04:33:09.854Z,16.67
2018-12-04T04:35:37.393Z,17.43
2018-12-04T04:38:04.925Z,12.93
2018-12-04T04:40:32.402Z,13.07
2018-12-04T04:42:59.894Z,14.00
2018-12-04T04:45:27.423Z,12.30
2018-12-04T04:47:54.929Z,12.73
2018-12-04T04:50:22.447Z,11.53
2018-12-04T04:52:50.041Z,11.97
2018-12-04T04:55:17.553Z,11.40
2018-12-04T04:57:45.743Z,10.03
2018-12-04T05:00:13.238Z,11.37
2018-12-04T05:02:41.241Z,11.27
2018-12-04T05:05:08.738Z,10.93
2018-12-04T05:07:36.222Z,9.67
2018-12-04T05:10:05.072Z,8.70
2018-12-04T05:12:32.578Z,10.73
2018-12-04T05:15:00.066Z,7.77
2018-12-04T05:17:28.329Z,7.83
2018-12-04T05:19:55.934Z,9.67
2018-12-04T05:22:23.932Z,9.20
2018-12-04T05:24:51.429Z,9.80
2018-12-04T05:27:18.917Z,10.90
2018-12-04T05:29:46.784Z,8.93
2018-12-04T05:32:14.270Z,8.87
2018-12-04T05:34:41.771Z,9.00
2018-12-04T05:37:09.541Z,10.60
2018-12-04T05:39:37.041Z,9.77
2018-12-04T05:42:04.543Z,9.13
2018-12-04T05:44:32.116Z,7.23
2018-12-04T05:46:59.611Z,6.97
2018-12-04T05:49:27.085Z,7.00
2018-12-04T05:51:54.597Z,5.77
2018-12-04T05:54:22.094Z,5.67
2018-12-04T05:56:49.591Z,6.90
2018-12-04T05:59:17.082Z,7.47
2018-12-04T06:01:45.142Z,7.47
2018-12-04T06:04:12.641Z,7.63
2018-12-04T06:06:40.142Z,7.00
2018-12-04T06:09:07.924Z,7.67
2018-12-04T06:11:35.774Z,5.97
2018-12-04T06:14:03.758Z,4.33
2018-12-04T06:16:31.341Z,5.63
2018-12-04T06:18:58.856Z,5.80
2018-12-04T06:21:26.442Z,8.20
2018-12-04T06:23:54.102Z,6.23
2018-12-04T06:26:21.594Z,4.13
2018-12-04T06:28:49.778Z,6.47
2018-12-04T06:31:17.290Z,6.93
2018-12-04T06:33:44.775Z,4.47
2018-12-04T06:36:12.261Z,6.93
2018-12-04T06:38:40.173Z,5.87
2018-12-04T06:41:07.657Z,4.07
2018-12-04T06:43:35.166Z,4.13
2018-12-04T06:46:02.658Z,4.97
2018-12-04T06:48:30.243Z,5.13
2018-12-04T06:50:57.721Z,6.40
2018-12-04T06:53:25.230Z,4.50
2018-12-04T06:55:52.724Z,3.47
2018-12-04T06:58:20.204Z,4.97
2018-12-04T07:00:48.526Z,3.40
2018-12-04T07:03:16.422Z,5.93
2018-12-04T07:05:43.945Z,4.23
2018-12-04T07:08:11.510Z,6.10
2018-12-04T07:10:39.774Z,5.70
2018-12-04T07:13:07.270Z,3.43
2018-12-04T07:15:34.792Z,4.33
2018-12-04T07:18:02.277Z,3.20
2018-12-04T07:20:29.769Z,6.10
2018-12-04T07:22:57.269Z,3.83
2018-12-04T07:25:25.543Z,3.27
2018-12-04T07:27:53.049Z,3.70
2018-12-04T07:30:20.533Z,6.00
2018-12-04T07:32:48.017Z,3.93
2018-12-04T07:35:15.591Z,4.87
2018-12-04T07:37:43.077Z,2.53
2018-12-04T07:40:10.597Z,4.73
2018-12-04T07:42:38.155Z,2.10
2018-12-04T07:45:05.981Z,5.17
2018-12-04T07:47:33.490Z,4.03
2018-12-04T07:50:01.005Z,2.73
2018-12-04T07:52:28.497Z,14.17
2018-12-04T07:54:56.482Z,94.43
2018-12-04T07:57:23.989Z,90.27
2018-12-04T07:59:51.502Z,86.60
2018-12-04T08:02:19.022Z,74.13
2018-12-04T08:04:46.539Z,76.33
2018-12-04T08:07:14.069Z,74.23
2018-12-04T08:09:41.595Z,77.07
2018-12-04T08:12:09.081Z,68.57
2018-12-04T08:14:36.598Z,108.73
2018-12-04T08:17:04.115Z,121.27
2018-12-04T08:19:31.605Z,119.07
2018-12-04T08:21:59.237Z,110.17
2018-12-04T08:24:26.741Z,114.53
2018-12-04T08:26:54.250Z,110.30
2018-12-04T08:29:22.041Z,105.63
2018-12-04T08:31:49.818Z,100.33
2018-12-04T08:34:17.338Z,96.10
2018-12-04T08:36:44.858Z,112.73
2018-12-04T08:39:13.314Z,141.83
2018-12-04T08:41:40.912Z,145.20
2018-12-04T08:44:08.406Z,134.00
2018-12-04T08:46:35.998Z,122.10
2018-12-04T08:49:03.517Z,122.07
2018-12-04T08:51:31.042Z,122.70
2018-12-04T08:53:58.558Z,126.47
2018-12-04T08:56:26.075Z,120.43
2018-12-04T08:58:53.585Z,120.37
2018-12-04T09:01:21.079Z,123.70
2018-12-04T09:03:48.601Z,141.60
2018-12-04T09:06:16.097Z,157.00
2018-12-04T09:08:43.622Z,178.20
2018-12-04T09:11:11.783Z,167.50
2018-12-04T09:13:39.283Z,156.90
2018-12-04T09:16:06.813Z,159.53
2018-12-04T09:18:34.314Z,148.17
2018-12-04T09:21:02.178Z,147.43
2018-12-04T09:23:30.001Z,139.13
2018-12-04T09:25:57.677Z,156.60
2018-12-04T09:28:25.341Z,190.60
2018-12-04T09:30:53.772Z,237.90
2018-12-04T09:33:21.321Z,203.30
2018-12-04T09:35:48.828Z,193.87
2018-12-04T09:38:16.496Z,189.37
2018-12-04T09:40:44.510Z,165.50
2018-12-04T09:43:12.005Z,176.00
2018-12-04T09:45:39.534Z,177.67
2018-12-04T09:48:07.035Z,175.30
2018-12-04T09:50:34.571Z,163.63
2018-12-04T09:53:02.074Z,178.93
2018-12-04T09:55:29.585Z,212.70
2018-12-04T09:57:57.098Z,206.43
2018-12-04T10:00:24.694Z,215.30
2018-12-04T10:02:52.195Z,191.17
2018-12-04T10:05:19.709Z,183.30
2018-12-04T10:07:47.222Z,178.37
2018-12-04T10:10:14.759Z,180.47
2018-12-04T10:12:42.280Z,177.10
2018-12-04T10:15:09.909Z,169.87
2018-12-04T10:17:37.423Z,160.60
2018-12-04T10:20:07.866Z,150.13
2018-12-04T10:22:35.413Z,142.33
2018-12-04T10:25:02.914Z,148.50
2018-12-04T10:27:30.435Z,142.70
2018-12-04T10:29:57.982Z,149.97
2018-12-04T10:32:25.498Z,141.43
2018-12-04T10:34:53.018Z,142.77
2018-12-04T10:37:20.533Z,152.43
2018-12-04T10:39:48.047Z,140.87
2018-12-04T10:42:15.549Z,147.10
2018-12-04T10:44:43.717Z,143.70
2018-12-04T10:47:11.690Z,142.80
2018-12-04T10:49:39.896Z,147.97
2018-12-04T10:52:08.425Z,139.40
2018-12-04T10:54:35.942Z,135.47
2018-12-04T10:57:03.442Z,134.37
2018-12-04T10:59:30.964Z,132.30
2018-12-04T11:02:04.270Z,131.53
2018-12-04T11:04:31.765Z,131.93
2018-12-04T11:06:59.354Z,128.40
2018-12-04T11:09:27.118Z,130.20
2018-12-04T11:11:55.267Z,121.20
2018-12-04T11:14:22.766Z,119.33
2018-12-04T11:16:50.285Z,119.70
2018-12-04T11:19:18.565Z,113.77
2018-12-04T11:21:46.096Z,113.10
2018-12-04T11:24:13.585Z,107.73
2018-12-04T11:26:41.105Z,105.27
2018-12-04T11:29:08.616Z,113.00
2018-12-04T11:31:36.127Z,115.73
2018-12-04T11:34:03.622Z,114.23
2018-12-04T11:36:31.148Z,117.30
2018-12-04T11:38:58.634Z,111.97
2018-12-04T11:41:26.159Z,108.67
2018-12-04T11:43:53.674Z,106.97
2018-12-04T11:46:21.198Z,102.40
2018-12-04T11:48:48.707Z,95.97
2018-12-04T11:51:16.221Z,94.63
2018-12-04T11:53:43.713Z,115.83
2018-12-04T11:56:11.934Z,115.53
2018-12-04T11:58:39.497Z,114.20
2018-12-04T12:01:07.017Z,114.60
2018-12-04T12:03:34.511Z,111.43
2018-12-04T12:06:02.040Z,115.40
2018-12-04T12:08:30.213Z,112.00
2018-12-04T12:10:57.720Z,101.60
2018-12-04T12:13:25.234Z,100.33
2018-12-04T12:15:52.744Z,102.70
2018-12-04T12:18:20.253Z,100.27
2018-12-04T12:20:47.758Z,95.60
2018-12-04T12:23:15.262Z,95.47
2018-12-04T12:25:42.766Z,98.70
2018-12-04T12:28:10.289Z,106.00
2018-12-04T12:30:37.867Z,115.13
2018-12-04T12:33:05.393Z,104.00
2018-12-04T12:35:32.879Z,106.60
2018-12-04T12:38:00.386Z,112.10
2018-12-04T12:40:27.898Z,103.67
2018-12-04T12:42:55.430Z,94.10
2018-12-04T12:45:23.016Z,96.47
2018-12-04T12:47:50.507Z,91.20
2018-12-04T12:50:18.023Z,86.33
2018-12-04T12:52:45.538Z,84.93
2018-12-04T12:55:13.145Z,96.73
2018-12-04T12:57:40.644Z,95.17
2018-12-04T13:00:09.090Z,103.90
2018-12-04T13:02:36.595Z,96.23
2018-12-04T13:05:04.343Z,100.63
2018-12-04T13:07:31.948Z,98.47
2018-12-04T13:10:00.152Z,98.67
2018-12-04T13:12:27.634Z,94.13
2018-12-04T13:14:55.173Z,93.90
2018-12-04T13:17:22.695Z,92.93
2018-12-04T13:19:50.214Z,94.03
2018-12-04T13:22:17.711Z,90.40
2018-12-04T13:24:45.274Z,94.33
2018-12-04T13:27:12.820Z,90.83
2018-12-04T13:29:40.327Z,92.43
2018-12-04T13:32:07.837Z,89.07
2018-12-04T13:34:35.451Z,87.87
2018-12-04T13:37:02.965Z,85.97
2018-12-04T13:39:30.462Z,81.83
2018-12-04T13:41:57.969Z,85.07
2018-12-04T13:44:25.478Z,79.13
2018-12-04T13:46:53.001Z,82.70
2018-12-04T13:49:20.887Z,85.47
2018-12-04T13:51:48.427Z,78.63
2018-12-04T13:54:16.786Z,77.93
2018-12-04T13:56:44.305Z,78.13
2018-12-04T13:59:11.806Z,74.00
2018-12-04T14:01:39.330Z,72.47
2018-12-04T14:04:06.958Z,70.40
2018-12-04T14:06:34.473Z,72.70
2018-12-04T14:09:03.585Z,68.33
2018-12-04T14:11:31.131Z,79.40
2018-12-04T14:13:58.646Z,98.47
2018-12-04T14:16:26.291Z,117.97
2018-12-04T14:18:53.983Z,123.40
2018-12-04T14:21:21.538Z,121.47
2018-12-04T14:23:49.149Z,117.90
2018-12-04T14:26:16.659Z,118.87
2018-12-04T14:28:44.218Z,113.83
2018-12-04T14:31:11.804Z,116.23
2018-12-04T14:33:39.438Z,109.40
2018-12-04T14:36:07.042Z,111.50
2018-12-04T14:38:34.585Z,107.87
2018-12-04T14:41:02.162Z,107.10
2018-12-04T14:43:29.673Z,106.67
2018-12-04T14:45:57.752Z,101.17
2018-12-04T14:48:25.366Z,98.60
2018-12-04T14:50:52.975Z,134.17
2018-12-04T14:53:20.576Z,113.30
2018-12-04T14:55:48.198Z,113.93
2018-12-04T14:58:15.727Z,111.70
2018-12-04T15:00:43.339Z,113.73
2018-12-04T15:03:11.223Z,113.27
2018-12-04T15:05:38.753Z,105.50
2018-12-04T15:08:06.528Z,109.07
2018-12-04T15:10:34.246Z,109.50
2018-12-04T15:13:03.241Z,106.17
2018-12-04T15:15:31.486Z,105.73
2018-12-04T15:17:58.978Z,99.03
2018-12-04T15:20:26.526Z,104.60
2018-12-04T15:22:54.115Z,107.97
2018-12-04T15:25:22.811Z,108.57
2018-12-04T15:27:50.387Z,119.60
2018-12-04T15:30:17.905Z,127.20
2018-12-04T15:32:45.495Z,122.37
2018-12-04T15:35:13.134Z,118.17
2018-12-04T15:37:41.351Z,119.00
2018-12-04T15:40:08.925Z,114.73
2018-12-04T15:42:37.109Z,111.13
2018-12-04T15:45:05.151Z,109.47
2018-12-04T15:47:32.761Z,114.60
2018-12-04T15:50:00.261Z,101.67
2018-12-04T15:52:27.810Z,116.77
2018-12-04T15:54:55.305Z,108.60
2018-12-04T15:57:22.827Z,114.30
2018-12-04T15:59:50.330Z,112.53
2018-12-04T16:02:17.835Z,108.40
2018-12-04T16:04:45.368Z,104.27
2018-12-04T16:07:13.150Z,99.30
2018-12-04T16:09:40.925Z,104.13
2018-12-04T16:12:08.464Z,101.70
2018-12-04T16:14:35.983Z,97.10
2018-12-04T16:17:03.749Z,96.63
2018-12-04T16:19:31.244Z,97.27
2018-12-04T16:21:58.759Z,98.40
2018-12-04T16:24:26.285Z,93.87
2018-12-04T16:26:53.810Z,91.50
2018-12-04T16:29:21.590Z,90.13
2018-12-04T16:31:49.184Z,86.00
2018-12-04T16:34:17.133Z,84.47
2018-12-04T16:36:44.642Z,85.37
2018-12-04T16:39:12.138Z,87.47
2018-12-04T16:41:39.641Z,84.23
2018-12-04T16:44:07.174Z,84.50
2018-12-04T16:46:34.669Z,85.97
2018-12-04T16:49:02.171Z,102.53
2018-12-04T16:51:29.695Z,116.57
2018-12-04T16:53:57.196Z,114.50
2018-12-04T16:56:24.770Z,115.50
2018-12-04T16:58:52.276Z,114.20
2018-12-04T17:01:20.308Z,113.87
2018-12-04T17:03:47.794Z,103.03
2018-12-04T17:06:15.313Z,104.53
2018-12-04T17:08:42.823Z,100.23
2018-12-04T17:11:10.326Z,99.50
2018-12-04T17:13:37.834Z,101.57
2018-12-04T17:16:05.718Z,105.00
2018-12-04T17:18:37.704Z,105.17
2018-12-04T17:21:03.434Z,106.53
2018-12-04T17:23:30.950Z,108.63
2018-12-04T17:25:59.269Z,108.80
2018-12-04T17:28:26.775Z,98.63
2018-12-04T17:30:54.273Z,93.13
2018-12-04T17:33:21.784Z,96.60
2018-12-04T17:35:49.285Z,89.27
2018-12-04T17:38:16.786Z,93.73
2018-12-04T17:40:44.463Z,88.73
2018-12-04T17:43:11.976Z,89.50
2018-12-04T17:45:39.470Z,83.17
2018-12-04T17:48:06.969Z,84.00
2018-12-04T17:50:34.480Z,82.50
2018-12-04T17:53:01.986Z,81.53
2018-12-04T17:55:29.499Z,76.03
2018-12-04T17:57:57.010Z,75.33
2018-12-04T18:00:24.811Z,77.53
2018-12-04T18:02:52.308Z,81.43
2018-12-04T18:05:20.382Z,82.30
2018-12-04T18:07:47.878Z,85.70
2018-12-04T18:10:15.385Z,82.00
2018-12-04T18:12:43.148Z,79.63
2018-12-04T18:15:10.800Z,87.53
2018-12-04T18:17:38.291Z,90.33
2018-12-04T18:20:05.805Z,97.10
2018-12-04T18:22:33.342Z,166.10
2018-12-04T18:25:00.868Z,200.07
2018-12-04T18:27:28.375Z,280.40
2018-12-04T18:29:55.881Z,409.90
2018-12-04T18:32:23.390Z,439.17
2018-12-04T18:34:50.895Z,441.83
2018-12-04T18:37:18.461Z,447.70
2018-12-04T18:39:46.186Z,446.13
2018-12-04T18:42:14.319Z,460.57
2018-12-04T18:44:41.871Z,452.77
2018-12-04T18:47:09.395Z,470.90
2018-12-04T18:49:36.921Z,491.77
2018-12-04T18:52:04.470Z,479.73
2018-12-04T18:54:31.991Z,472.80
2018-12-04T18:56:59.538Z,468.70
2018-12-04T18:59:27.090Z,475.87
2018-12-04T19:01:54.750Z,479.40
2018-12-04T19:04:22.721Z,488.63
2018-12-04T19:06:50.269Z,481.53
2018-12-04T19:09:17.779Z,483.83
2018-12-04T19:11:45.374Z,472.03
2018-12-04T19:14:12.924Z,475.63
2018-12-04T19:16:41.097Z,463.13
2018-12-04T19:19:08.608Z,468.60
2018-12-04T19:21:36.127Z,462.07
2018-12-04T19:24:03.734Z,470.70
2018-12-04T19:26:31.286Z,455.90
2018-12-04T19:28:58.837Z,457.37
2018-12-04T19:31:26.450Z,439.07
2018-12-04T19:33:53.960Z,458.93
2018-12-04T19:36:21.464Z,446.23
2018-12-04T19:38:48.981Z,416.80
2018-12-04T19:41:16.494Z,408.33
2018-12-04T19:43:44.010Z,425.23
2018-12-04T19:46:11.510Z,425.67
2018-12-04T19:48:39.022Z,428.87
2018-12-04T19:51:06.541Z,423.57
2018-12-04T19:53:34.068Z,421.63
2018-12-04T19:56:01.584Z,418.60
2018-12-04T19:58:29.106Z,425.50
2018-12-04T20:00:56.655Z,421.67
2018-12-04T20:03:24.838Z,411.43
2018-12-04T20:05:52.728Z,406.53
2018-12-04T20:08:20.294Z,393.87
2018-12-04T20:10:47.845Z,380.77
2018-12-04T20:13:15.636Z,375.87
2018-12-04T20:15:43.202Z,369.60
2018-12-04T20:18:10.718Z,376.17
2018-12-04T20:20:38.235Z,364.43
2018-12-04T20:23:05.754Z,353.57
2018-12-04T20:25:33.260Z,357.60
2018-12-04T20:28:00.795Z,346.53
2018-12-04T20:30:28.303Z,360.43
2018-12-04T20:32:59.836Z,346.20
2018-12-04T20:35:25.413Z,346.13
2018-12-04T20:37:52.926Z,342.73
2018-12-04T20:40:20.447Z,342.60
2018-12-04T20:42:47.960Z,333.83
2018-12-04T20:45:15.478Z,324.67
2018-12-04T20:47:43.010Z,320.80
2018-12-04T20:50:10.538Z,331.77
2018-12-04T20:52:38.066Z,334.30
2018-12-04T20:55:08.997Z,338.70
2018-12-04T20:57:35.121Z,320.30
2018-12-04T21:00:05.428Z,321.10
2018-12-04T21:02:33.190Z,315.10
2018-12-04T21:05:00.705Z,296.60
2018-12-04T21:07:28.226Z,296.47
2018-12-04T21:09:56.480Z,326.37
2018-12-04T21:12:24.055Z,317.30
2018-12-04T21:14:52.339Z,289.07
2018-12-04T21:17:19.923Z,301.90
2018-12-04T21:19:47.442Z,280.20
2018-12-04T21:22:14.950Z,284.60
2018-12-04T21:24:42.467Z,288.60
2018-12-04T21:27:15.631Z,288.73
2018-12-04T21:29:48.921Z,285.83
2018-12-04T21:35:23.020Z,282.97
2018-12-04T21:37:56.266Z,255.47
2018-12-04T21:40:29.609Z,263.73
2018-12-04T21:43:02.842Z,241.57
2018-12-04T21:48:35.200Z,251.83
2018-12-04T21:51:03.009Z,284.90
2018-12-04T21:53:30.678Z,274.30
2018-12-04T21:55:58.456Z,303.67
2018-12-04T21:58:26.140Z,313.23
2018-12-04T22:00:53.643Z,336.17
2018-12-04T22:03:21.178Z,309.97
2018-12-04T22:05:48.700Z,298.17
2018-12-04T22:08:16.372Z,294.40
2018-12-04T22:10:43.875Z,294.53
2018-12-04T22:13:11.657Z,290.37
2018-12-04T22:15:39.153Z,261.50
2018-12-04T22:18:06.677Z,279.67
2018-12-04T22:20:34.173Z,260.63
2018-12-04T22:23:02.252Z,275.33
2018-12-04T22:25:29.793Z,294.27
2018-12-04T22:27:57.964Z,285.60
2018-12-04T22:30:25.473Z,282.23
2018-12-04T22:32:53.760Z,269.07
2018-12-04T22:35:21.548Z,261.27
2018-12-04T22:37:49.050Z,268.00
2018-12-04T22:40:16.579Z,277.93
2018-12-04T22:42:44.171Z,300.50
2018-12-04T22:45:30.626Z,308.77
2018-12-04T22:47:58.154Z,351.67
2018-12-04T22:50:25.675Z,361.03
2018-12-04T22:52:53.206Z,360.30
2018-12-04T22:55:20.709Z,337.73
2018-12-04T22:57:48.226Z,325.73
2018-12-04T23:00:24.521Z,316.30
2018-12-04T23:02:52.045Z,318.77
2018-12-04T23:05:19.541Z,329.07
2018-12-04T23:07:47.090Z,388.10
2018-12-04T23:10:15.206Z,342.53
2018-12-04T23:12:43.002Z,315.17
2018-12-04T23:15:10.532Z,313.03
2018-12-04T23:17:38.037Z,319.93
2018-12-04T23:20:05.558Z,306.77
2018-12-04T23:22:33.471Z,318.50
2018-12-04T23:25:00.969Z,295.97
2018-12-04T23:27:28.646Z,286.30
2018-12-04T23:29:56.158Z,285.17
2018-12-04T23:32:23.700Z,284.87
2018-12-04T23:34:51.209Z,275.83
2018-12-04T23:37:18.810Z,265.10
2018-12-04T23:39:46.311Z,268.10
2018-12-04T23:42:13.889Z,250.63
2018-12-04T23:44:41.474Z,244.37
2018-12-04T23:47:08.970Z,271.53
2018-12-04T23:49:36.494Z,296.47
2018-12-04T23:52:04.008Z,293.77
2018-12-04T23:54:31.501Z,292.27
2018-12-04T23:56:59.007Z,287.87
2018-12-04T23:59:26.689Z,279.07
